Time;durP1;ratioP1;P1;durP2;ratioP2;P2;SDS_P1;SDS_P2;PMS_P1;PMS_P2;Temp;Humidity;BMP_temperature;BMP_pressure;BME280_temperature;BME280_humidity;BME280_pressure;Samples;Min_cycle;Max_cycle;Signal;HPM_P1;HPM_P2
2023/04/10 00:02:22;;;;;;;47.60;30.80;;;;;;;7.07;78.47;101418.53;5034219;28;20213;-77
2023/04/10 00:04:49;;;;;;;39.83;30.60;;;;;;;7.09;78.52;101422.00;5034175;28;20209;-77
2023/04/10 00:07:15;;;;;;;45.70;30.73;;;;;;;7.08;78.91;101412.50;5033583;28;20230;-78
2023/04/10 00:09:42;;;;;;;41.87;28.80;;;;;;;7.10;78.63;101422.03;5033954;28;20248;-77
2023/04/10 00:12:10;;;;;;;44.13;32.23;;;;;;;7.07;78.48;101429.78;5033837;28;20220;-79
2023/04/10 00:14:36;;;;;;;41.23;30.27;;;;;;;7.06;78.28;101433.25;5033737;28;20210;-77
2023/04/10 00:17:03;;;;;;;32.70;27.60;;;;;;;7.01;79.05;101436.63;5033526;28;20704;-78
2023/04/10 00:19:30;;;;;;;37.47;28.07;;;;;;;7.02;78.90;101441.00;5034059;28;20266;-77
2023/04/10 00:21:56;;;;;;;41.17;29.73;;;;;;;6.95;78.08;101455.59;5044011;28;20239;-78
2023/04/10 00:24:23;;;;;;;39.27;29.73;;;;;;;6.90;77.13;101480.63;5053615;28;20261;-78
2023/04/10 00:26:49;;;;;;;39.83;30.73;;;;;;;6.87;76.58;101499.63;5053082;28;20774;-80
2023/04/10 00:29:17;;;;;;;41.80;30.50;;;;;;;6.73;76.81;101520.19;5053299;28;20673;-78
2023/04/10 00:31:43;;;;;;;42.13;31.20;;;;;;;6.61;77.34;101519.16;5053368;28;20678;-79
2023/04/10 00:34:10;;;;;;;38.77;28.20;;;;;;;6.56;77.02;101500.91;5053447;28;20237;-77
2023/04/10 00:36:37;;;;;;;40.33;29.03;;;;;;;6.46;77.87;101507.69;5053445;28;20223;-77
2023/04/10 00:39:03;;;;;;;33.67;27.97;;;;;;;6.45;77.21;101485.19;5053202;28;20260;-78
2023/04/10 00:41:30;;;;;;;36.37;28.43;;;;;;;6.31;78.53;101474.63;5053396;28;20209;-77
2023/04/10 00:43:57;;;;;;;40.00;28.33;;;;;;;6.27;79.16;101459.00;5053481;28;20261;-77
2023/04/10 00:46:25;;;;;;;29.87;25.50;;;;;;;6.27;78.81;101438.25;5053181;28;20608;-77
2023/04/10 00:48:53;;;;;;;34.07;27.40;;;;;;;6.27;79.04;101431.34;5052867;28;20735;-78
2023/04/10 00:51:20;;;;;;;34.07;26.47;;;;;;;6.20;79.49;101416.53;5047554;28;20588;-77
2023/04/10 00:53:49;;;;;;;34.67;26.73;;;;;;;6.14;79.91;101396.59;5032904;28;20294;-77
2023/04/10 00:56:16;;;;;;;34.97;27.23;;;;;;;6.13;80.03;101373.25;5033152;28;20210;-78
2023/04/10 00:58:43;;;;;;;32.40;25.33;;;;;;;6.10;80.64;101362.81;5032817;28;20727;-77
2023/04/10 01:01:10;;;;;;;30.87;24.00;;;;;;;6.11;80.27;101355.06;5033184;28;20526;-77
2023/04/10 01:03:39;;;;;;;34.60;26.10;;;;;;;6.05;80.46;101355.00;5032978;28;20216;-78
2023/04/10 01:06:12;;;;;;;31.40;24.27;;;;;;;5.98;81.07;101358.31;5032905;28;20292;-77
2023/04/10 01:08:47;;;;;;;34.63;25.23;;;;;;;6.00;81.43;101358.34;5032405;28;20225;-78
2023/04/10 01:11:30;;;;;;;31.17;24.07;;;;;;;5.94;81.06;101351.31;5032948;28;20233;-77
2023/04/10 01:14:05;;;;;;;32.53;24.57;;;;;;;5.94;80.74;101346.13;5032880;28;20207;-77
2023/04/10 01:16:43;;;;;;;31.80;25.90;;;;;;;5.94;80.57;101346.13;5032500;28;20681;-77
2023/04/10 01:19:25;;;;;;;29.80;24.00;;;;;;;5.95;80.93;101359.16;5032444;28;20281;-77
2023/04/10 01:21:54;;;;;;;29.00;23.80;;;;;;;5.93;80.47;101365.16;5033611;28;20202;-78
2023/04/10 01:24:30;;;;;;;31.63;26.13;;;;;;;5.90;80.59;101360.75;5032477;28;20209;-77
2023/04/10 01:27:10;;;;;;;36.20;26.73;;;;;;;5.86;81.08;101356.38;5032239;28;20289;-79
2023/04/10 01:29:41;;;;;;;32.50;25.53;;;;;;;5.79;81.60;101357.16;5032459;28;20213;-77
2023/04/10 01:32:11;;;;;;;37.33;26.90;;;;;;;5.83;81.43;101346.00;5032769;28;20213;-76
2023/04/10 01:34:43;;;;;;;38.17;26.83;;;;;;;5.89;80.89;101342.63;5032406;28;20269;-77
2023/04/10 01:37:15;;;;;;;33.27;26.60;;;;;;;5.87;81.69;101349.50;5032188;28;20618;-77
2023/04/10 01:39:43;;;;;;;37.23;28.17;;;;;;;5.85;81.31;101349.47;5032228;28;20263;-78
2023/04/10 01:42:14;;;;;;;36.47;27.17;;;;;;;5.82;81.42;101352.00;5032464;28;20499;-77
2023/04/10 01:44:46;;;;;;;32.37;27.57;;;;;;;5.81;81.67;101354.56;5032410;28;20207;-77
2023/04/10 01:47:14;;;;;;;33.63;27.13;;;;;;;5.82;81.32;101353.75;5031985;28;20681;-78
2023/04/10 01:49:45;;;;;;;36.93;27.93;;;;;;;5.81;80.61;101349.38;5032074;28;20209;-78
2023/04/10 01:52:12;;;;;;;35.07;26.30;;;;;;;5.78;80.77;101348.50;5044469;28;20205;-78
2023/04/10 01:54:39;;;;;;;40.00;28.77;;;;;;;5.72;81.66;101352.72;5051226;28;20658;-77
2023/04/10 01:57:06;;;;;;;34.10;26.77;;;;;;;5.69;81.76;101345.78;5051887;28;20235;-78
2023/04/10 01:59:32;;;;;;;35.17;26.93;;;;;;;5.66;80.95;101344.84;5052138;28;20247;-77
2023/04/10 02:02:01;;;;;;;42.30;29.27;;;;;;;5.64;81.49;101342.25;5051886;28;20205;-78
2023/04/10 02:04:27;;;;;;;40.60;29.77;;;;;;;5.52;82.11;101342.03;5051969;28;20363;-78
2023/04/10 02:07:02;;;;;;;42.13;29.13;;;;;;;5.58;82.27;101322.28;5051404;28;20223;-81
2023/04/10 02:09:40;;;;;;;39.07;28.40;;;;;;;5.67;82.31;101315.50;5051955;28;20300;-77
2023/04/10 02:12:12;;;;;;;37.70;28.00;;;;;;;5.70;82.06;101308.66;5051938;28;20217;-77
2023/04/10 02:14:45;;;;;;;39.07;28.73;;;;;;;5.64;82.20;101315.47;5051801;28;20269;-77
2023/04/10 02:17:14;;;;;;;37.77;27.20;;;;;;;5.67;81.98;101307.72;5051434;28;20262;-78
2023/04/10 02:19:42;;;;;;;29.03;25.33;;;;;;;5.67;81.47;101311.22;5052094;28;20251;-78
2023/04/10 02:22:09;;;;;;;39.13;26.80;;;;;;;5.71;81.63;101297.47;5039280;28;20223;-78
2023/04/10 02:24:35;;;;;;;33.50;26.00;;;;;;;5.69;81.89;101316.41;5031672;28;20268;-77
2023/04/10 02:27:02;;;;;;;32.10;24.80;;;;;;;5.73;81.43;101313.03;5031407;28;20226;-78
2023/04/10 02:29:28;;;;;;;32.77;25.63;;;;;;;5.72;81.19;101314.72;5031758;28;20237;-78
2023/04/10 02:31:55;;;;;;;35.80;25.50;;;;;;;5.74;80.85;101322.53;5031536;28;20256;-78
2023/04/10 02:34:23;;;;;;;34.57;26.43;;;;;;;5.71;81.42;101328.53;5031903;28;20212;-77
2023/04/10 02:36:50;;;;;;;32.53;25.93;;;;;;;5.61;81.35;101320.59;5031680;28;20285;-80
2023/04/10 02:39:16;;;;;;;36.00;27.17;;;;;;;5.64;81.26;101310.28;5031773;28;20211;-77
2023/04/10 02:41:42;;;;;;;27.60;24.53;;;;;;;5.67;81.71;101311.22;5031600;28;20207;-77
2023/04/10 02:44:09;;;;;;;31.70;24.60;;;;;;;5.69;81.87;101306.03;5031562;28;20218;-77
2023/04/10 02:46:35;;;;;;;31.67;25.00;;;;;;;5.68;81.23;101309.50;5031295;28;20226;-78
2023/04/10 02:49:02;;;;;;;27.03;22.80;;;;;;;5.68;81.43;101312.94;5031413;28;20233;-77
2023/04/10 02:51:29;;;;;;;30.20;25.17;;;;;;;5.72;81.13;101312.13;5032442;28;20659;-78
2023/04/10 02:53:56;;;;;;;26.50;23.20;;;;;;;5.64;81.63;101305.97;5031344;28;20259;-77
2023/04/10 02:56:22;;;;;;;27.27;23.43;;;;;;;5.69;82.02;101296.56;5031399;28;20361;-79
2023/04/10 02:58:49;;;;;;;29.13;24.07;;;;;;;5.71;81.82;101296.59;5031220;28;20669;-78
2023/04/10 03:01:15;;;;;;;27.47;22.70;;;;;;;5.72;81.89;101290.56;5031789;28;20208;-78
2023/04/10 03:03:41;;;;;;;27.93;22.03;;;;;;;5.70;81.61;101290.53;5031269;28;20206;-77
2023/04/10 03:06:09;;;;;;;25.03;22.00;;;;;;;5.74;81.60;101291.44;5032551;28;20207;-77
2023/04/10 03:08:37;;;;;;;22.60;20.33;;;;;;;5.74;81.58;101297.50;5034878;28;20253;-78
2023/04/10 03:11:03;;;;;;;23.03;20.67;;;;;;;5.76;81.63;101302.69;5035126;28;20264;-80
2023/04/10 03:13:30;;;;;;;22.53;20.27;;;;;;;5.77;81.89;101292.38;5034970;28;20206;-77
2023/04/10 03:15:56;;;;;;;23.40;20.73;;;;;;;5.85;81.59;101294.22;5035174;28;20206;-78
2023/04/10 03:18:22;;;;;;;21.93;19.63;;;;;;;5.84;81.35;101290.72;5034815;28;20631;-77
2023/04/10 03:20:49;;;;;;;21.47;19.27;;;;;;;5.93;80.65;101301.22;5036121;28;20287;-77
2023/04/10 03:23:16;;;;;;;21.17;19.17;;;;;;;5.98;80.85;101303.91;5038582;28;20274;-78
2023/04/10 03:25:43;;;;;;;19.80;17.87;;;;;;;6.06;80.00;101322.16;5054709;28;20266;-78
2023/04/10 03:28:10;;;;;;;19.40;17.40;;;;;;;6.12;80.54;101324.81;5054213;28;20285;-77
2023/04/10 03:30:36;;;;;;;20.40;18.50;;;;;;;6.18;80.47;101317.13;5054784;28;20231;-80
2023/04/10 03:33:03;;;;;;;19.57;17.67;;;;;;;6.20;79.82;101333.56;5054760;28;20270;-78
2023/04/10 03:35:29;;;;;;;19.87;17.97;;;;;;;6.20;79.47;101338.75;5054592;28;20208;-77
2023/04/10 03:37:56;;;;;;;21.00;19.00;;;;;;;6.15;79.64;101332.66;5054503;28;20231;-77
2023/04/10 03:40:22;;;;;;;19.67;17.77;;;;;;;6.10;79.95;101340.34;5054776;28;20207;-78
2023/04/10 03:42:50;;;;;;;19.57;17.77;;;;;;;6.08;80.18;101336.00;5054276;28;20205;-77
2023/04/10 03:45:16;;;;;;;19.20;17.33;;;;;;;5.99;80.15;101325.53;5054541;28;20211;-77
2023/04/10 03:47:43;;;;;;;19.80;17.97;;;;;;;5.97;80.56;101313.41;5053877;28;20695;-77
2023/04/10 03:50:10;;;;;;;17.27;15.87;;;;;;;5.94;81.31;101299.50;5054364;28;20205;-77
2023/04/10 03:52:36;;;;;;;18.63;16.77;;;;;;;5.83;81.45;101295.88;5038220;28;20723;-77
2023/04/10 03:55:03;;;;;;;19.40;17.43;;;;;;;5.83;81.72;101278.63;5034183;28;20206;-77
2023/04/10 03:57:29;;;;;;;17.43;15.93;;;;;;;5.95;81.53;101270.19;5033843;28;20290;-77
2023/04/10 03:59:57;;;;;;;16.90;15.40;;;;;;;6.00;81.15;101270.25;5034430;28;20213;-77
2023/04/10 04:02:24;;;;;;;19.27;17.47;;;;;;;6.04;80.82;101283.25;5034368;28;20209;-77
2023/04/10 04:04:50;;;;;;;18.30;16.60;;;;;;;6.08;80.38;101303.19;5034049;28;20212;-77
2023/04/10 04:07:16;;;;;;;17.00;15.50;;;;;;;6.21;79.97;101309.41;5033635;28;20233;-78
2023/04/10 04:09:43;;;;;;;17.93;16.23;;;;;;;6.28;79.74;101313.84;5034026;28;20255;-78
2023/04/10 04:12:09;;;;;;;18.50;16.70;;;;;;;6.34;78.86;101325.97;5033679;28;20210;-78
2023/04/10 04:14:36;;;;;;;22.80;20.40;;;;;;;6.33;78.14;101358.81;5033781;28;20607;-78
2023/04/10 04:17:03;;;;;;;30.87;26.40;;;;;;;6.19;76.48;101409.63;5033051;28;20286;-77
2023/04/10 04:19:30;;;;;;;33.37;25.90;;;;;;;6.03;77.18;101420.63;5033672;28;20207;-78
2023/04/10 04:21:56;;;;;;;29.80;25.47;;;;;;;5.91;77.70;101419.53;5034008;28;20238;-77
2023/04/10 04:24:23;;;;;;;31.27;25.43;;;;;;;5.74;77.58;101411.47;5082665;22;20771;-77
2023/04/10 04:26:49;;;;;;;34.60;25.77;;;;;;;5.67;78.49;101416.53;5073040;28;20280;-77
2023/04/10 04:29:16;;;;;;;35.43;25.60;;;;;;;5.55;78.10;101405.13;5073327;28;20223;-76
2023/04/10 04:31:42;;;;;;;32.20;26.00;;;;;;;5.47;78.64;101404.13;5073704;28;20207;-77
2023/04/10 04:34:10;;;;;;;25.17;22.47;;;;;;;5.41;78.80;101392.78;5073505;28;20675;-77
2023/04/10 04:36:36;;;;;;;30.13;23.23;;;;;;;5.38;79.45;101383.25;5073400;28;20247;-77
2023/04/10 04:39:03;;;;;;;24.03;21.73;;;;;;;5.41;79.79;101375.53;5073262;28;20202;-76
2023/04/10 04:41:31;;;;;;;20.60;18.57;;;;;;;5.37;80.78;101351.31;5073318;28;20677;-76
2023/04/10 04:43:57;;;;;;;19.23;17.53;;;;;;;5.42;81.47;101319.44;5073466;28;20206;-77
2023/04/10 04:46:23;;;;;;;17.93;16.13;;;;;;;5.43;81.66;101303.94;5073343;28;20216;-77
2023/04/10 04:48:50;;;;;;;17.40;15.70;;;;;;;5.48;81.86;101289.34;5072937;28;20230;-76
2023/04/10 04:51:18;;;;;;;17.90;16.20;;;;;;;5.46;82.96;101265.13;5073262;28;20210;-77
2023/04/10 04:53:44;;;;;;;18.10;16.40;;;;;;;5.45;83.12;101250.47;5072902;28;20240;-76
2023/04/10 04:56:11;;;;;;;17.73;15.97;;;;;;;5.54;83.01;101231.59;5072874;28;20202;-76
2023/04/10 04:58:37;;;;;;;18.13;16.50;;;;;;;5.61;82.39;101237.72;5072595;28;20711;-76
2023/04/10 05:01:04;;;;;;;18.17;16.47;;;;;;;5.70;82.23;101243.03;5073045;28;20253;-76
2023/04/10 05:03:30;;;;;;;17.20;15.80;;;;;;;5.80;81.65;101244.03;5072969;28;20287;-77
2023/04/10 05:05:57;;;;;;;17.27;15.47;;;;;;;5.84;81.96;101243.22;5072883;28;20214;-76
2023/04/10 05:08:25;;;;;;;18.33;16.67;;;;;;;5.94;81.72;101243.34;5072011;28;20230;-77
2023/04/10 05:10:51;;;;;;;17.63;15.83;;;;;;;6.03;81.53;101239.19;5073007;28;20204;-77
2023/04/10 05:13:18;;;;;;;17.40;15.83;;;;;;;6.04;82.44;101241.78;5072864;28;20205;-76
2023/04/10 05:15:45;;;;;;;17.53;15.93;;;;;;;6.11;81.66;101251.38;5072639;28;20220;-76
2023/04/10 05:18:12;;;;;;;16.73;15.33;;;;;;;6.20;81.56;101249.75;5072314;28;20231;-76
2023/04/10 05:20:39;;;;;;;17.13;15.60;;;;;;;6.21;81.79;101262.75;5072642;28;20228;-76
2023/04/10 05:23:05;;;;;;;18.03;16.33;;;;;;;6.30;81.79;101268.06;5072225;28;20213;-75
2023/04/10 05:25:33;;;;;;;18.00;16.33;;;;;;;6.32;80.95;101283.59;5072686;28;20208;-76
2023/04/10 05:28:00;;;;;;;22.00;19.63;;;;;;;6.40;80.58;101300.13;5071721;28;20776;-76
2023/04/10 05:30:26;;;;;;;22.57;20.33;;;;;;;6.43;79.46;101307.94;5071910;28;20290;-76
2023/04/10 05:32:52;;;;;;;23.40;21.20;;;;;;;6.45;78.27;101339.97;5072426;28;20204;-76
2023/04/10 05:35:19;;;;;;;28.50;22.10;;;;;;;6.48;78.85;101355.56;5072313;28;20618;-76
2023/04/10 05:37:45;;;;;;;23.70;21.20;;;;;;;6.48;79.00;101367.66;5071816;28;20273;-76
2023/04/10 05:40:12;;;;;;;23.50;20.97;;;;;;;6.47;78.80;101366.78;5072133;28;20698;-76
2023/04/10 05:42:40;;;;;;;21.50;19.33;;;;;;;6.47;79.77;101355.56;5072206;28;20208;-76
2023/04/10 05:45:07;;;;;;;19.33;17.63;;;;;;;6.50;80.53;101337.41;5072235;28;20242;-76
2023/04/10 05:47:33;;;;;;;18.97;17.03;;;;;;;6.53;81.10;101321.91;5071864;28;20229;-76
2023/04/10 05:50:00;;;;;;;19.00;17.30;;;;;;;6.49;81.69;101307.16;5071960;28;20281;-76
2023/04/10 05:52:26;;;;;;;21.13;19.13;;;;;;;6.48;81.89;101288.16;5072281;28;20253;-76
2023/04/10 05:54:52;;;;;;;20.50;18.60;;;;;;;6.41;82.46;101278.53;5071850;28;20206;-76
2023/04/10 05:57:19;;;;;;;18.30;16.60;;;;;;;6.45;81.45;101275.13;5071691;28;20282;-76
2023/04/10 05:59:46;;;;;;;19.00;17.30;;;;;;;6.58;82.95;101260.59;5072090;28;20265;-76
2023/04/10 06:02:13;;;;;;;17.67;16.07;;;;;;;6.69;83.99;101238.19;5071996;28;20261;-76
2023/04/10 06:04:39;;;;;;;17.07;15.47;;;;;;;6.82;82.37;101240.91;5071973;28;20272;-77
2023/04/10 06:07:06;;;;;;;16.40;14.80;;;;;;;6.93;84.23;101240.16;5071754;28;20235;-77
2023/04/10 06:09:32;;;;;;;16.40;15.00;;;;;;;7.05;82.61;101238.53;5071963;28;20225;-77
2023/04/10 06:12:00;;;;;;;16.43;14.87;;;;;;;7.16;81.69;101248.13;5072046;28;20250;-76
2023/04/10 06:14:26;;;;;;;16.27;14.87;;;;;;;7.27;82.57;101252.53;5072220;28;20216;-78
2023/04/10 06:16:54;;;;;;;15.97;14.53;;;;;;;7.34;81.01;101264.72;5072268;28;20730;-78
2023/04/10 06:19:20;;;;;;;17.10;15.63;;;;;;;7.45;80.10;101289.06;5072529;28;20670;-77
2023/04/10 06:21:47;;;;;;;15.77;14.37;;;;;;;7.51;82.18;101270.03;5072132;28;20208;-77
2023/04/10 06:24:14;;;;;;;16.80;15.17;;;;;;;7.56;82.01;101271.81;5071520;28;20262;-77
2023/04/10 06:26:41;;;;;;;17.00;15.43;;;;;;;7.68;81.67;101276.22;5071973;28;20223;-76
2023/04/10 06:29:07;;;;;;;16.93;15.50;;;;;;;7.72;81.51;101275.38;5071435;28;20223;-78
2023/04/10 06:31:33;;;;;;;16.37;14.73;;;;;;;7.75;82.65;101274.53;5071773;28;20207;-77
2023/04/10 06:34:01;;;;;;;15.57;14.17;;;;;;;7.83;82.67;101259.88;5071572;28;20582;-78
2023/04/10 06:36:28;;;;;;;14.77;13.53;;;;;;;7.86;83.14;101225.22;5071536;28;20211;-77
2023/04/10 06:38:54;;;;;;;18.03;16.53;;;;;;;7.92;81.46;101225.25;5071383;28;20665;-77
2023/04/10 06:41:20;;;;;;;17.03;15.53;;;;;;;8.00;80.92;101266.88;5074798;28;20723;-77
2023/04/10 06:43:47;;;;;;;15.30;14.00;;;;;;;8.03;85.00;101228.75;5075728;28;20210;-77
2023/04/10 06:46:14;;;;;;;16.60;15.20;;;;;;;8.08;82.19;101211.44;5075452;28;20261;-77
2023/04/10 06:48:41;;;;;;;16.77;15.27;;;;;;;8.14;81.43;101241.78;5075159;28;20595;-77
2023/04/10 06:51:09;;;;;;;16.50;14.93;;;;;;;8.22;79.02;101276.50;5075735;28;20214;-77
2023/04/10 06:53:35;;;;;;;14.97;13.50;;;;;;;8.35;74.65;101364.13;5075230;28;20713;-77
2023/04/10 06:56:02;;;;;;;14.97;13.63;;;;;;;8.47;75.92;101423.22;5075429;28;20205;-76
2023/04/10 06:58:28;;;;;;;14.13;12.93;;;;;;;8.55;73.76;101451.88;5074956;28;20285;-76
2023/04/10 07:00:55;;;;;;;14.07;12.90;;;;;;;8.73;72.33;101529.19;5074633;28;20695;-77
2023/04/10 07:03:21;;;;;;;13.43;12.33;;;;;;;8.90;70.58;101564.03;5069833;28;20207;-77
2023/04/10 07:05:47;;;;;;;14.07;12.93;;;;;;;9.04;70.70;101602.28;5074924;28;20220;-77
2023/04/10 07:08:15;;;;;;;13.43;12.33;;;;;;;9.20;69.92;101626.72;5074491;28;20224;-77
2023/04/10 07:10:42;;;;;;;13.00;12.00;;;;;;;9.31;69.82;101657.16;5074629;28;20220;-77
2023/04/10 07:13:08;;;;;;;13.53;12.33;;;;;;;9.46;68.22;101694.59;5074684;28;20204;-78
2023/04/10 07:15:35;;;;;;;12.83;11.83;;;;;;;9.60;68.81;101729.44;5074918;28;21760;-78
2023/04/10 07:18:01;;;;;;;13.27;12.17;;;;;;;9.67;68.74;101714.69;5071798;28;20221;-77
2023/04/10 07:20:28;;;;;;;12.90;11.80;;;;;;;9.74;68.00;101726.91;5074926;28;20207;-77
2023/04/10 07:22:54;;;;;;;13.60;12.50;;;;;;;9.76;67.92;101755.59;5074421;28;20210;-77
2023/04/10 07:25:22;;;;;;;13.30;12.20;;;;;;;9.84;66.54;101772.16;5074538;28;20212;-77
2023/04/10 07:27:48;;;;;;;13.43;12.33;;;;;;;9.89;67.47;101773.03;5076468;28;20230;-78
2023/04/10 07:30:15;;;;;;;12.93;11.83;;;;;;;9.89;67.81;101767.81;5076357;28;20285;-77
2023/04/10 07:32:41;;;;;;;13.63;12.37;;;;;;;9.92;66.17;101768.72;5075678;28;20212;-78
2023/04/10 07:35:09;;;;;;;12.47;11.47;;;;;;;9.99;66.47;101780.06;5075831;28;20215;-78
2023/04/10 07:37:35;;;;;;;12.13;11.17;;;;;;;10.07;66.83;101769.69;5075435;28;20640;-78
2023/04/10 07:40:02;;;;;;;12.30;11.30;;;;;;;10.16;64.26;101784.50;5076095;28;20214;-78
2023/04/10 07:42:30;;;;;;;13.03;12.00;;;;;;;10.23;65.27;101813.25;5076271;28;20205;-78
2023/04/10 07:44:57;;;;;;;13.30;12.00;;;;;;;10.27;64.94;101816.75;5075993;28;20215;-79
2023/04/10 07:47:23;;;;;;;13.10;12.10;;;;;;;10.29;64.22;101838.50;5078735;28;20707;-76
2023/04/10 07:49:50;;;;;;;12.27;11.30;;;;;;;10.35;65.50;101841.16;5075035;28;20762;-77
2023/04/10 07:52:16;;;;;;;12.77;11.63;;;;;;;10.44;64.31;101848.16;5073294;28;20200;-76
2023/04/10 07:54:42;;;;;;;12.43;11.40;;;;;;;10.48;63.11;101839.47;5074108;28;20202;-76
2023/04/10 07:57:09;;;;;;;12.10;11.10;;;;;;;10.58;63.49;101862.13;5073616;28;20227;-76
2023/04/10 07:59:37;;;;;;;11.67;10.77;;;;;;;10.71;63.35;101860.44;5074349;28;20261;-76
2023/04/10 08:02:03;;;;;;;12.67;11.70;;;;;;;10.81;63.85;101864.84;5074036;28;20234;-76
2023/04/10 08:04:30;;;;;;;12.13;11.17;;;;;;;10.91;64.01;101835.25;5074124;28;20208;-76
2023/04/10 08:06:56;;;;;;;12.30;11.30;;;;;;;10.95;62.62;101854.41;5073489;28;20231;-75
2023/04/10 08:09:22;;;;;;;11.80;10.90;;;;;;;10.95;60.65;101880.53;5073902;28;20226;-76
2023/04/10 08:11:49;;;;;;;12.33;11.30;;;;;;;11.08;62.54;101881.44;5073714;28;20254;-76
2023/04/10 08:14:15;;;;;;;12.97;11.87;;;;;;;11.23;63.54;101891.94;5074373;28;20205;-75
2023/04/10 08:16:43;;;;;;;13.70;12.50;;;;;;;11.35;62.11;101895.44;5073812;28;20255;-76
2023/04/10 08:19:10;;;;;;;12.57;11.47;;;;;;;11.41;59.24;101912.00;5073654;28;20258;-77
2023/04/10 08:21:36;;;;;;;12.83;11.83;;;;;;;11.49;60.30;101944.25;5073714;28;20254;-77
2023/04/10 08:24:03;;;;;;;13.77;12.67;;;;;;;11.55;60.84;101934.69;5073478;28;20243;-76
2023/04/10 08:26:30;;;;;;;14.00;12.80;;;;;;;11.62;61.08;101915.53;5073504;28;20208;-76
2023/04/10 08:28:58;;;;;;;13.60;12.50;;;;;;;11.65;60.13;101895.44;5073417;28;20239;-76
2023/04/10 08:31:26;;;;;;;12.67;11.63;;;;;;;11.69;59.65;101907.69;5073414;28;20737;-76
2023/04/10 08:33:54;;;;;;;15.07;12.03;;;;;;;11.77;61.98;101918.13;5073606;28;20220;-76
2023/04/10 08:36:21;;;;;;;13.17;12.07;;;;;;;11.87;59.72;101878.03;5073404;28;20724;-75
2023/04/10 08:38:48;;;;;;;12.77;11.77;;;;;;;11.94;58.24;101919.91;5073829;28;20576;-74
2023/04/10 08:41:16;;;;;;;13.07;11.87;;;;;;;11.98;56.16;101956.53;5073443;28;20795;-75
2023/04/10 08:43:44;;;;;;;12.13;11.23;;;;;;;12.08;58.06;102012.38;5073493;28;20204;-74
2023/04/10 08:46:11;;;;;;;12.63;11.53;;;;;;;12.16;55.96;101965.25;5073284;28;20298;-73
2023/04/10 08:48:39;;;;;;;13.10;11.80;;;;;;;12.25;55.79;102021.09;5072959;28;20223;-73
2023/04/10 08:51:13;;;;;;;12.33;11.33;;;;;;;12.38;58.48;102026.31;5073060;28;20232;-72
2023/04/10 08:53:43;;;;;;;11.93;10.93;;;;;;;12.43;57.86;101990.53;5072834;28;20201;-73
2023/04/10 08:56:12;;;;;;;11.20;10.40;;;;;;;12.47;58.29;102001.00;5072984;28;20545;-73
2023/04/10 08:58:39;;;;;;;11.90;11.00;;;;;;;12.53;55.25;101981.78;5072907;28;20595;-73
2023/04/10 09:01:07;;;;;;;11.33;10.43;;;;;;;12.65;57.68;102005.31;5073150;28;20201;-73
2023/04/10 09:03:34;;;;;;;12.40;11.40;;;;;;;12.73;58.26;101992.22;5072946;28;20232;-73
2023/04/10 09:06:02;;;;;;;9.60;8.90;;;;;;;12.79;58.34;101981.72;5072780;28;20239;-73
2023/04/10 09:08:30;;;;;;;11.47;10.63;;;;;;;12.91;57.13;101949.34;5072321;28;20731;-73
2023/04/10 09:10:56;;;;;;;13.77;11.67;;;;;;;12.95;61.17;101956.31;5072821;28;20227;-73
2023/04/10 09:13:36;;;;;;;11.90;11.00;;;;;;;12.99;58.20;101896.88;5072918;28;20287;-73
2023/04/10 09:16:02;;;;;;;12.60;11.60;;;;;;;13.07;58.52;101893.31;5072693;28;20557;-73
2023/04/10 09:18:46;;;;;;;12.00;11.10;;;;;;;13.08;57.60;101918.69;5072165;28;20239;-73
2023/04/10 09:21:15;;;;;;;12.23;11.23;;;;;;;13.17;59.52;101923.00;5072624;28;20204;-75
2023/04/10 09:23:44;;;;;;;11.27;10.33;;;;;;;13.27;57.36;101889.72;5071801;28;20216;-75
2023/04/10 09:26:24;;;;;;;11.60;10.63;;;;;;;13.30;56.55;101898.47;5072431;28;20205;-74
2023/04/10 09:29:00;;;;;;;10.40;9.60;;;;;;;13.35;55.57;101905.44;5072013;28;20209;-74
2023/04/10 09:31:31;;;;;;;10.73;9.93;;;;;;;13.33;54.31;101934.28;5072527;28;20228;-75
2023/04/10 09:34:11;;;;;;;10.30;9.50;;;;;;;13.33;53.54;101976.25;5072493;28;20341;-76
2023/04/10 09:36:39;;;;;;;10.67;9.87;;;;;;;13.43;54.02;102005.91;5072284;28;20282;-75
2023/04/10 09:39:08;;;;;;;10.67;9.87;;;;;;;13.46;53.49;102017.28;5071894;28;20212;-74
2023/04/10 09:41:35;;;;;;;10.10;9.30;;;;;;;13.45;52.06;102040.88;5072116;28;20210;-75
2023/04/10 09:44:09;;;;;;;10.50;9.70;;;;;;;13.51;52.71;102070.56;5072481;28;20291;-75
2023/04/10 09:46:36;;;;;;;10.23;9.53;;;;;;;13.60;53.22;102046.06;5072114;28;20224;-75
2023/04/10 09:49:04;;;;;;;10.80;10.00;;;;;;;13.64;52.43;102028.56;5075026;28;20262;-75
2023/04/10 09:51:31;;;;;;;10.90;10.10;;;;;;;13.73;53.97;102028.47;5072788;28;20859;-75
2023/04/10 09:53:57;;;;;;;10.67;9.67;;;;;;;13.72;51.13;102029.38;5071998;28;20206;-75
2023/04/10 09:56:26;;;;;;;11.80;10.67;;;;;;;13.78;52.72;102063.44;5073335;28;20252;-76
2023/04/10 09:58:57;;;;;;;11.60;10.70;;;;;;;13.82;51.83;102044.16;5071846;28;20209;-76
2023/04/10 10:01:25;;;;;;;10.43;9.63;;;;;;;13.91;51.46;102043.22;5072052;28;20204;-74
2023/04/10 10:03:54;;;;;;;11.97;11.07;;;;;;;13.95;52.13;102051.97;5071853;28;20610;-74
2023/04/10 10:06:20;;;;;;;11.13;10.33;;;;;;;13.98;49.12;102012.56;5071659;28;20205;-74
2023/04/10 10:08:48;;;;;;;11.50;10.70;;;;;;;14.04;49.61;102072.91;5071892;28;20263;-74
2023/04/10 10:11:17;;;;;;;11.77;10.77;;;;;;;14.08;51.09;102112.25;5071904;28;20286;-74
2023/04/10 10:13:50;;;;;;;11.77;10.87;;;;;;;14.09;50.40;102097.34;5072000;28;20210;-74
2023/04/10 10:16:20;;;;;;;11.73;10.83;;;;;;;14.13;50.27;102095.59;5071512;28;20668;-74
2023/04/10 10:18:53;;;;;;;10.80;9.90;;;;;;;14.15;49.72;102110.44;5071794;28;20229;-73
2023/04/10 10:21:21;;;;;;;11.73;10.83;;;;;;;14.29;50.03;102073.56;5072680;28;20615;-73
2023/04/10 10:23:52;;;;;;;10.97;10.13;;;;;;;14.24;47.60;102094.63;5078264;22;20516;-76
2023/04/10 10:26:19;;;;;;;11.13;10.10;;;;;;;14.32;48.60;102135.75;5049362;28;20209;-79
2023/04/10 10:28:48;;;;;;;10.37;9.57;;;;;;;14.40;49.74;102139.19;5055691;28;20227;-79
2023/04/10 10:31:16;;;;;;;10.07;9.27;;;;;;;14.50;49.68;102143.47;5056670;28;20230;-79
2023/04/10 10:33:43;;;;;;;11.43;10.53;;;;;;;14.48;48.35;102114.56;5060969;28;20584;-78
2023/04/10 10:36:12;;;;;;;11.13;10.27;;;;;;;14.57;48.58;102121.56;5062247;28;20257;-78
2023/04/10 10:38:41;;;;;;;11.27;10.37;;;;;;;14.65;50.13;102088.19;5060170;28;20222;-78
2023/04/10 10:41:13;;;;;;;9.53;8.83;;;;;;;14.67;48.71;102082.94;5056429;28;20205;-80
2023/04/10 10:43:52;;;;;;;9.97;9.17;;;;;;;14.69;47.90;102089.91;5056425;28;20277;-79
2023/04/10 10:46:24;;;;;;;10.00;9.30;;;;;;;14.76;48.67;102100.34;5055967;28;20214;-79
2023/04/10 10:48:57;;;;;;;9.70;9.00;;;;;;;14.84;48.04;102070.47;5056437;28;20210;-78
2023/04/10 10:51:24;;;;;;;10.13;9.27;;;;;;;14.91;49.33;102081.81;5056868;28;20229;-78
2023/04/10 10:53:50;;;;;;;10.70;9.80;;;;;;;14.97;46.42;102055.44;5057187;28;20210;-79
2023/04/10 10:56:41;;;;;;;9.87;9.10;;;;;;;15.15;48.44;102085.06;5058292;28;20210;-79
2023/04/10 10:59:10;;;;;;;8.70;8.10;;;;;;;15.29;48.35;102080.50;5034604;28;20223;-79
2023/04/10 11:01:36;;;;;;;9.10;8.40;;;;;;;15.45;47.69;102033.81;5060673;28;20226;-79
2023/04/10 11:04:43;;;;;;;9.13;8.43;;;;;;;15.59;46.38;102042.38;5062450;28;20207;-79
2023/04/10 11:07:09;;;;;;;8.50;7.90;;;;;;;15.54;44.13;102065.28;5058100;28;20318;-78
2023/04/10 11:09:51;;;;;;;8.10;7.50;;;;;;;15.73;45.86;102120.34;5057605;28;20215;-78
2023/04/10 11:12:20;;;;;;;8.53;7.90;;;;;;;15.84;46.38;102121.06;5054795;28;20210;-78
2023/04/10 11:14:57;;;;;;;8.53;7.93;;;;;;;16.00;46.66;102084.84;5055796;28;20594;-79
2023/04/10 11:17:52;;;;;;;8.57;7.90;;;;;;;16.13;47.22;102112.72;5056621;28;20229;-79
2023/04/10 11:20:20;;;;;;;8.80;8.20;;;;;;;16.30;45.60;102085.25;5056702;28;20214;-79
2023/04/10 11:23:08;;;;;;;9.27;8.57;;;;;;;16.59;46.32;102080.38;5058285;28;20266;-79